Time;durP1;ratioP1;P1;durP2;ratioP2;P2;SDS_P1;SDS_P2;PMS_P1;PMS_P2;Temp;Humidity;BMP_temperature;BMP_pressure;BME280_temperature;BME280_humidity;BME280_pressure;Samples;Min_cycle;Max_cycle;Signal;HPM_P1;HPM_P2
2022/01/04 00:01:45;;;;;;;;;;;21.60;53.30;;;;;;6347785;27;20353;-44
2022/01/04 00:04:47;;;;;;;;;;;22.20;53.00;;;;;;6332535;27;20046;-45
2022/01/04 00:07:48;;;;;;;;;;;21.60;52.60;;;;;;6331269;27;20042;-44
2022/01/04 00:10:54;;;;;;;;;;;21.90;52.90;;;;;;6347803;27;19971;-46
2022/01/04 00:13:56;;;;;;;;;;;21.50;52.60;;;;;;6343468;27;21259;-47
2022/01/04 00:16:57;;;;;;;;;;;22.30;53.00;;;;;;6331403;28;20010;-45
2022/01/04 00:19:59;;;;;;;;;;;21.70;53.30;;;;;;6332075;28;19935;-45
2022/01/04 00:23:01;;;;;;;;;;;21.00;52.30;;;;;;6328225;28;20719;-44
2022/01/04 00:26:02;;;;;;;;;;;21.90;52.80;;;;;;6325627;27;19923;-49
2022/01/04 00:29:04;;;;;;;;;;;21.50;52.50;;;;;;6313578;28;20801;-46
2022/01/04 00:32:05;;;;;;;;;;;21.70;52.70;;;;;;6331366;27;19927;-45
2022/01/04 00:35:08;;;;;;;;;;;21.50;52.50;;;;;;6343195;27;20069;-46
2022/01/04 00:38:09;;;;;;;;;;;21.60;52.60;;;;;;6324314;27;19978;-44
2022/01/04 00:41:11;;;;;;;;;;;21.60;52.60;;;;;;6331224;28;19934;-45
2022/01/04 00:44:12;;;;;;;;;;;21.50;52.60;;;;;;6328281;28;20797;-45
2022/01/04 00:47:13;;;;;;;;;;;22.10;52.80;;;;;;6334907;27;19971;-47
2022/01/04 00:50:15;;;;;;;;;;;21.40;52.50;;;;;;6346333;27;19928;-46
2022/01/04 00:53:16;;;;;;;;;;;21.50;52.60;;;;;;6330521;27;19930;-45
2022/01/04 00:56:18;;;;;;;;;;;21.50;52.50;;;;;;6310550;27;20034;-45
2022/01/04 00:59:19;;;;;;;;;;;21.90;52.80;;;;;;6348547;27;19931;-45
2022/01/04 01:02:20;;;;;;;;;;;21.50;52.60;;;;;;6338527;27;20041;-44
2022/01/04 01:05:24;;;;;;;;;;;21.50;52.60;;;;;;6337878;27;20855;-47
2022/01/04 01:08:26;;;;;;;;;;;21.40;52.50;;;;;;6348274;27;20049;-46
2022/01/04 01:11:27;;;;;;;;;;;21.80;52.70;;;;;;6333925;27;20516;-47
2022/01/04 01:14:29;;;;;;;;;;;21.50;52.50;;;;;;6332830;28;20371;-48
2022/01/04 01:17:30;;;;;;;;;;;22.00;52.80;;;;;;6329959;27;20030;-45
2022/01/04 01:20:32;;;;;;;;;;;21.80;52.70;;;;;;6325363;28;20055;-46
2022/01/04 01:23:34;;;;;;;;;;;22.20;52.80;;;;;;6336660;27;19928;-45
2022/01/04 01:26:35;;;;;;;;;;;21.80;52.70;;;;;;6322454;27;20035;-45
2022/01/04 01:29:37;;;;;;;;;;;21.50;52.50;;;;;;6328515;28;20046;-45
2022/01/04 01:32:38;;;;;;;;;;;21.60;52.60;;;;;;6328164;27;19923;-47
2022/01/04 01:35:40;;;;;;;;;;;21.70;52.60;;;;;;6327716;28;19934;-45
2022/01/04 01:38:42;;;;;;;;;;;21.50;52.50;;;;;;6326151;28;20018;-44
2022/01/04 01:41:43;;;;;;;;;;;22.00;52.70;;;;;;6330351;28;19924;-47
2022/01/04 01:44:45;;;;;;;;;;;21.90;52.70;;;;;;6345160;27;20033;-49
2022/01/04 01:47:46;;;;;;;;;;;21.90;52.70;;;;;;6338381;27;19970;-44
2022/01/04 01:50:48;;;;;;;;;;;21.40;52.40;;;;;;6331076;28;20039;-44
2022/01/04 01:53:49;;;;;;;;;;;21.60;52.50;;;;;;6328908;28;20484;-46
2022/01/04 01:56:51;;;;;;;;;;;21.90;52.70;;;;;;6331415;28;19923;-44
2022/01/04 01:59:52;;;;;;;;;;;21.60;52.50;;;;;;6321824;27;19924;-46
2022/01/04 02:02:54;;;;;;;;;;;21.40;52.40;;;;;;6342672;27;20042;-44
2022/01/04 02:05:56;;;;;;;;;;;21.50;52.40;;;;;;6349168;27;19927;-46
2022/01/04 02:08:58;;;;;;;;;;;21.30;52.30;;;;;;6332348;27;20134;-45
2022/01/04 02:12:00;;;;;;;;;;;21.50;52.40;;;;;;6328191;27;20069;-44
2022/01/04 02:15:01;;;;;;;;;;;21.30;52.20;;;;;;6341586;27;19970;-46
2022/01/04 02:18:03;;;;;;;;;;;21.80;52.50;;;;;;6339921;27;20749;-44
2022/01/04 02:21:05;;;;;;;;;;;21.50;52.40;;;;;;6346045;27;19931;-44
2022/01/04 02:24:06;;;;;;;;;;;21.40;52.30;;;;;;6316231;28;19939;-43
2022/01/04 02:27:07;;;;;;;;;;;21.70;52.50;;;;;;6323992;27;19967;-43
2022/01/04 02:30:11;;;;;;;;;;;21.30;52.30;;;;;;6321242;27;20150;-43
2022/01/04 02:33:12;;;;;;;;;;;21.40;52.30;;;;;;6311244;28;20465;-43
2022/01/04 02:36:14;;;;;;;;;;;21.80;52.50;;;;;;6329242;27;20851;-44
2022/01/04 02:39:15;;;;;;;;;;;21.60;52.40;;;;;;6347380;27;19978;-44
2022/01/04 02:42:17;;;;;;;;;;;21.60;52.50;;;;;;6332031;27;19929;-43
2022/01/04 02:45:18;;;;;;;;;;;21.60;52.50;;;;;;6324014;28;20525;-43
2022/01/04 02:48:20;;;;;;;;;;;21.80;52.50;;;;;;6328385;28;19934;-43
2022/01/04 02:51:23;;;;;;;;;;;21.50;52.30;;;;;;6305939;27;19954;-43
2022/01/04 02:54:24;;;;;;;;;;;21.30;52.20;;;;;;6346334;27;20429;-44
2022/01/04 02:57:26;;;;;;;;;;;21.40;52.30;;;;;;6337738;27;20424;-44
2022/01/04 03:00:28;;;;;;;;;;;20.90;52.10;;;;;;6340452;27;20420;-43
2022/01/04 03:03:30;;;;;;;;;;;21.70;52.50;;;;;;6336702;27;19927;-44
2022/01/04 03:06:32;;;;;;;;;;;21.90;52.60;;;;;;6314436;27;19927;-43
2022/01/04 03:09:33;;;;;;;;;;;21.50;52.40;;;;;;6339914;27;19978;-43
2022/01/04 03:12:35;;;;;;;;;;;21.30;52.80;;;;;;6340576;27;19927;-43
2022/01/04 03:15:37;;;;;;;;;;;21.50;52.30;;;;;;6337901;27;20238;-44
2022/01/04 03:18:55;;;;;;;;;;;21.90;52.60;;;;;;6331036;28;19930;-43
2022/01/04 03:21:57;;;;;;;;;;;21.50;52.30;;;;;;6324541;28;20049;-43
2022/01/04 03:24:59;;;;;;;;;;;21.30;52.20;;;;;;6324598;28;20270;-44
2022/01/04 03:28:00;;;;;;;;;;;21.50;52.40;;;;;;6315410;27;20518;-43
2022/01/04 03:31:01;;;;;;;;;;;21.30;52.20;;;;;;6326908;28;20049;-43
2022/01/04 03:34:03;;;;;;;;;;;21.80;52.50;;;;;;6339954;27;20173;-44
2022/01/04 03:37:05;;;;;;;;;;;21.30;52.10;;;;;;6341371;27;19938;-43
2022/01/04 03:40:07;;;;;;;;;;;21.40;52.20;;;;;;6327950;28;19963;-46
2022/01/04 03:43:08;;;;;;;;;;;21.70;52.30;;;;;;6326782;28;19962;-44
2022/01/04 03:46:10;;;;;;;;;;;21.50;52.30;;;;;;6329364;28;20000;-44
2022/01/04 03:49:11;;;;;;;;;;;21.80;52.40;;;;;;6341052;27;20434;-45
2022/01/04 03:52:13;;;;;;;;;;;21.30;52.20;;;;;;6342604;27;19924;-44
2022/01/04 03:55:15;;;;;;;;;;;21.20;52.20;;;;;;6325468;27;20536;-45
2022/01/04 03:58:16;;;;;;;;;;;21.20;52.10;;;;;;6326361;27;20493;-44
2022/01/04 04:01:18;;;;;;;;;;;21.30;52.20;;;;;;6328315;27;19929;-43
2022/01/04 04:04:20;;;;;;;;;;;21.40;52.20;;;;;;6342215;27;19934;-43
2022/01/04 04:07:22;;;;;;;;;;;21.30;52.20;;;;;;6340561;27;19926;-43
2022/01/04 04:10:23;;;;;;;;;;;21.20;52.10;;;;;;6344189;27;20232;-44
2022/01/04 04:13:24;;;;;;;;;;;21.20;52.10;;;;;;6333361;27;19931;-44
2022/01/04 04:16:26;;;;;;;;;;;21.40;52.20;;;;;;6327866;27;20347;-43
2022/01/04 04:19:27;;;;;;;;;;;21.70;52.30;;;;;;6336985;28;19935;-46
2022/01/04 04:22:29;;;;;;;;;;;21.30;52.20;;;;;;6345733;27;20900;-43
2022/01/04 04:25:30;;;;;;;;;;;21.30;52.20;;;;;;6354271;27;20049;-47
2022/01/04 04:28:32;;;;;;;;;;;21.30;52.20;;;;;;6335516;27;19971;-48
2022/01/04 04:31:33;;;;;;;;;;;21.20;52.20;;;;;;6316123;28;20036;-47
2022/01/04 04:34:34;;;;;;;;;;;21.80;52.40;;;;;;6337897;27;20819;-44
2022/01/04 04:37:36;;;;;;;;;;;21.20;52.10;;;;;;6335388;27;20751;-48
2022/01/04 04:40:38;;;;;;;;;;;21.40;52.20;;;;;;6334566;27;20774;-48
2022/01/04 04:43:39;;;;;;;;;;;21.30;52.10;;;;;;6351485;27;20228;-45
2022/01/04 04:46:40;;;;;;;;;;;21.20;52.10;;;;;;6330076;27;19927;-44
2022/01/04 04:49:42;;;;;;;;;;;21.60;52.30;;;;;;6327886;28;20355;-47
2022/01/04 04:52:44;;;;;;;;;;;21.20;52.20;;;;;;6334374;28;20033;-44
2022/01/04 04:55:45;;;;;;;;;;;21.20;52.10;;;;;;6327367;28;20342;-43
2022/01/04 04:58:47;;;;;;;;;;;21.20;52.10;;;;;;6344305;27;19927;-45
2022/01/04 05:01:48;;;;;;;;;;;21.30;52.20;;;;;;6336330;27;20107;-46
2022/01/04 05:04:50;;;;;;;;;;;21.20;52.10;;;;;;6340885;27;20060;-44
2022/01/04 05:07:52;;;;;;;;;;;21.50;52.20;;;;;;6332687;27;20525;-44
2022/01/04 05:10:53;;;;;;;;;;;21.30;52.10;;;;;;6327298;27;19960;-44
2022/01/04 05:13:55;;;;;;;;;;;21.20;52.10;;;;;;6337847;27;20022;-44
2022/01/04 05:16:56;;;;;;;;;;;21.50;52.20;;;;;;6327375;28;20235;-45
2022/01/04 05:19:57;;;;;;;;;;;21.60;52.30;;;;;;6340480;27;19997;-43
2022/01/04 05:22:59;;;;;;;;;;;21.50;52.30;;;;;;6331714;27;20250;-44
2022/01/04 05:26:01;;;;;;;;;;;21.20;52.00;;;;;;6320802;27;20193;-44
2022/01/04 05:29:02;;;;;;;;;;;21.40;52.20;;;;;;6308946;27;20145;-44
2022/01/04 05:32:04;;;;;;;;;;;21.20;52.00;;;;;;6302316;28;20663;-43
2022/01/04 05:35:06;;;;;;;;;;;21.30;52.10;;;;;;6321863;27;19958;-45
2022/01/04 05:38:08;;;;;;;;;;;21.60;52.10;;;;;;6338372;27;19931;-44
2022/01/04 05:41:10;;;;;;;;;;;21.60;52.30;;;;;;6334488;27;20029;-43
2022/01/04 05:44:11;;;;;;;;;;;21.60;52.40;;;;;;6319913;28;19923;-49
2022/01/04 05:47:13;;;;;;;;;;;21.40;52.20;;;;;;6306774;28;19950;-43
2022/01/04 05:50:14;;;;;;;;;;;21.90;52.50;;;;;;6317682;28;20308;-44
2022/01/04 05:53:16;;;;;;;;;;;21.30;52.10;;;;;;6321074;27;19933;-44
2022/01/04 05:56:17;;;;;;;;;;;21.20;52.00;;;;;;6316889;27;20004;-44
2022/01/04 05:59:19;;;;;;;;;;;21.30;52.20;;;;;;6332706;27;20234;-44
2022/01/04 06:02:20;;;;;;;;;;;21.20;52.30;;;;;;6325376;27;20211;-46
2022/01/04 06:05:21;;;;;;;;;;;21.30;52.20;;;;;;6326262;27;20096;-45
2022/01/04 06:08:26;;;;;;;;;;;21.30;52.10;;;;;;6340889;27;20829;-50
2022/01/04 06:11:44;;;;;;;;;;;21.30;52.10;;;;;;6333095;27;20714;-45
2022/01/04 06:14:52;;;;;;;;;;;21.20;52.00;;;;;;6345420;27;19963;-46
2022/01/04 06:17:54;;;;;;;;;;;21.40;52.20;;;;;;6322976;28;19923;-46
2022/01/04 06:20:55;;;;;;;;;;;21.70;52.30;;;;;;6326087;28;20594;-44
2022/01/04 06:23:57;;;;;;;;;;;21.40;52.10;;;;;;6323794;28;20014;-47
2022/01/04 06:26:59;;;;;;;;;;;21.20;52.00;;;;;;6326482;27;19966;-47
2022/01/04 06:30:01;;;;;;;;;;;21.10;51.90;;;;;;6325274;27;20043;-44
2022/01/04 06:33:02;;;;;;;;;;;21.20;52.00;;;;;;6333221;27;19968;-48
2022/01/04 06:36:04;;;;;;;;;;;21.30;52.10;;;;;;6325163;27;19978;-47
2022/01/04 06:39:06;;;;;;;;;;;21.10;51.90;;;;;;6326496;27;19927;-46
2022/01/04 06:42:08;;;;;;;;;;;21.00;51.80;;;;;;6301243;28;19930;-45
2022/01/04 06:45:10;;;;;;;;;;;21.20;51.80;;;;;;6306099;28;19927;-47
2022/01/04 06:48:12;;;;;;;;;;;21.60;52.00;;;;;;6326199;27;20610;-46
2022/01/04 06:51:13;;;;;;;;;;;21.70;52.00;;;;;;6335458;27;20315;-44
2022/01/04 06:54:16;;;;;;;;;;;21.60;51.90;;;;;;6313513;27;20042;-46
2022/01/04 06:57:17;;;;;;;;;;;21.30;51.70;;;;;;6313356;27;19927;-43
2022/01/04 07:00:18;;;;;;;;;;;21.60;51.90;;;;;;6295830;27;20025;-44
2022/01/04 07:03:20;;;;;;;;;;;21.40;51.60;;;;;;6298361;27;20211;-48
2022/01/04 07:06:21;;;;;;;;;;;21.30;51.50;;;;;;6313465;27;19927;-46
2022/01/04 07:09:24;;;;;;;;;;;21.40;51.50;;;;;;6316319;27;19923;-46
2022/01/04 07:12:25;;;;;;;;;;;21.20;51.30;;;;;;6314189;27;19933;-45
2022/01/04 07:15:27;;;;;;;;;;;21.30;51.30;;;;;;6300542;28;19927;-45
2022/01/04 07:18:28;;;;;;;;;;;21.80;51.50;;;;;;6285604;28;19923;-47
2022/01/04 07:21:29;;;;;;;;;;;22.00;51.50;;;;;;6294313;27;19933;-48
2022/01/04 07:24:35;;;;;;;;;;;21.30;51.20;;;;;;6303324;27;19928;-47
2022/01/04 07:27:37;;;;;;;;;;;21.40;51.10;;;;;;6280688;27;19932;-44
2022/01/04 07:30:38;;;;;;;;;;;21.40;51.20;;;;;;6293897;28;20074;-47
2022/01/04 07:33:40;;;;;;;;;;;21.50;51.20;;;;;;6296566;28;19928;-46
2022/01/04 07:36:41;;;;;;;;;;;21.60;51.10;;;;;;6290368;27;19958;-43
2022/01/04 07:39:43;;;;;;;;;;;21.60;51.10;;;;;;6287565;27;19927;-47
2022/01/04 07:42:44;;;;;;;;;;;21.70;51.10;;;;;;6276927;27;19931;-47
2022/01/04 07:45:46;;;;;;;;;;;21.60;51.10;;;;;;6279700;27;19927;-46
2022/01/04 07:48:49;;;;;;;;;;;21.70;51.00;;;;;;6268270;27;19928;-46
2022/01/04 07:51:51;;;;;;;;;;;21.90;51.10;;;;;;6251737;27;24421;-48
2022/01/04 07:54:53;;;;;;;;;;;21.90;51.20;;;;;;6251624;27;19969;-47
2022/01/04 07:57:55;;;;;;;;;;;21.90;51.00;;;;;;6244340;27;20012;-46
2022/01/04 08:00:56;;;;;;;;;;;22.20;51.20;;;;;;6247761;27;19927;-45
2022/01/04 08:03:58;;;;;;;;;;;22.10;51.10;;;;;;6222959;27;19927;-43
2022/01/04 08:06:59;;;;;;;;;;;21.80;51.00;;;;;;6214944;27;19928;-44
2022/01/04 08:10:01;;;;;;;;;;;22.10;51.00;;;;;;6241862;27;21421;-43
2022/01/04 08:13:03;;;;;;;;;;;22.40;51.10;;;;;;6231517;27;19927;-44
2022/01/04 08:16:04;;;;;;;;;;;21.80;50.70;;;;;;6239650;27;20846;-43
2022/01/04 08:19:06;;;;;;;;;;;22.50;51.00;;;;;;6242364;27;19927;-43
2022/01/04 08:22:08;;;;;;;;;;;22.00;50.80;;;;;;6218257;27;19928;-47
2022/01/04 08:25:10;;;;;;;;;;;22.00;50.70;;;;;;6240719;27;20140;-44
2022/01/04 08:28:12;;;;;;;;;;;22.30;50.80;;;;;;6248415;27;21668;-45
2022/01/04 08:31:13;;;;;;;;;;;22.40;50.80;;;;;;6209617;27;21403;-44
2022/01/04 08:34:25;;;;;;;;;;;22.30;50.70;;;;;;6227411;27;19935;-44
2022/01/04 08:37:27;;;;;;;;;;;21.90;50.60;;;;;;6242237;27;20050;-47
2022/01/04 08:40:29;;;;;;;;;;;22.40;50.70;;;;;;6225732;27;21510;-46
2022/01/04 08:43:30;;;;;;;;;;;22.30;50.60;;;;;;6248596;27;21193;-44
2022/01/04 08:46:33;;;;;;;;;;;22.20;50.60;;;;;;6251893;27;19967;-45
2022/01/04 08:49:35;;;;;;;;;;;22.20;50.50;;;;;;6240643;27;20450;-44
2022/01/04 08:52:37;;;;;;;;;;;22.40;50.60;;;;;;6230812;27;19933;-47
2022/01/04 08:55:40;;;;;;;;;;;22.30;50.60;;;;;;6258240;27;19928;-44
2022/01/04 08:58:42;;;;;;;;;;;22.40;50.40;;;;;;6246463;27;19932;-44
2022/01/04 09:01:44;;;;;;;;;;;22.40;50.40;;;;;;6231584;27;20534;-43
2022/01/04 09:04:46;;;;;;;;;;;22.90;50.70;;;;;;6244076;27;19927;-47
2022/01/04 09:07:47;;;;;;;;;;;22.40;50.40;;;;;;6245880;27;19968;-46
2022/01/04 09:10:49;;;;;;;;;;;22.10;50.20;;;;;;6252122;27;19926;-46
2022/01/04 09:13:56;;;;;;;;;;;22.50;50.30;;;;;;6233639;27;21028;-47
2022/01/04 09:20:13;;;;;;;;;;;22.60;50.30;;;;;;6251280;27;19934;-44
2022/01/04 09:23:18;;;;;;;;;;;22.70;50.40;;;;;;6236878;27;19934;-45
2022/01/04 09:26:20;;;;;;;;;;;22.30;50.10;;;;;;6219041;27;19994;-46
2022/01/04 09:29:21;;;;;;;;;;;22.40;50.20;;;;;;6239188;27;19998;-46
2022/01/04 09:32:23;;;;;;;;;;;22.70;50.30;;;;;;6226335;27;19958;-44
2022/01/04 09:35:24;;;;;;;;;;;22.30;50.10;;;;;;6216914;27;20053;-45
2022/01/04 09:38:25;;;;;;;;;;;22.50;50.10;;;;;;6213681;27;19927;-43
2022/01/04 09:41:28;;;;;;;;;;;22.20;50.10;;;;;;6222443;27;19927;-45
2022/01/04 09:44:29;;;;;;;;;;;22.80;50.30;;;;;;6205922;27;19927;-44
2022/01/04 09:47:31;;;;;;;;;;;22.90;50.30;;;;;;6232741;27;19975;-46
2022/01/04 09:50:34;;;;;;;;;;;22.60;50.20;;;;;;6206271;27;19986;-47
2022/01/04 09:53:36;;;;;;;;;;;22.70;50.20;;;;;;6210958;27;19927;-43
2022/01/04 09:56:37;;;;;;;;;;;22.70;50.20;;;;;;6242064;27;19939;-45
2022/01/04 09:59:39;;;;;;;;;;;22.40;50.00;;;;;;6230000;27;19967;-46
2022/01/04 10:02:40;;;;;;;;;;;22.50;50.00;;;;;;6212713;27;19939;-44
2022/01/04 10:05:43;;;;;;;;;;;22.80;50.10;;;;;;6225982;27;19928;-45
2022/01/04 10:08:55;;;;;;;;;;;22.80;50.10;;;;;;6226962;27;19934;-44
2022/01/04 10:11:58;;;;;;;;;;;22.90;50.00;;;;;;6226262;27;21734;-43
2022/01/04 10:14:59;;;;;;;;;;;22.80;50.00;;;;;;6220960;27;20130;-44
2022/01/04 10:18:03;;;;;;;;;;;22.50;49.90;;;;;;6231516;27;19927;-48
2022/01/04 10:21:13;;;;;;;;;;;22.50;49.80;;;;;;6228441;27;19934;-45
2022/01/04 10:24:17;;;;;;;;;;;22.60;49.90;;;;;;6228974;27;19933;-48
2022/01/04 10:27:23;;;;;;;;;;;22.40;49.80;;;;;;6221454;27;19934;-46
2022/01/04 10:30:28;;;;;;;;;;;22.80;49.90;;;;;;6230886;27;19924;-44
2022/01/04 10:33:31;;;;;;;;;;;22.60;49.90;;;;;;6216905;27;22030;-48
2022/01/04 10:36:37;;;;;;;;;;;22.90;50.00;;;;;;6230217;27;20069;-45
2022/01/04 10:39:54;;;;;;;;;;;23.00;50.10;;;;;;6234296;27;19927;-46
2022/01/04 10:43:05;;;;;;;;;;;22.90;50.00;;;;;;6222567;27;19935;-46
2022/01/04 10:46:07;;;;;;;;;;;22.80;49.90;;;;;;6232591;27;19934;-44
2022/01/04 10:49:17;;;;;;;;;;;22.50;49.80;;;;;;6230867;27;19928;-47
2022/01/04 10:52:22;;;;;;;;;;;22.70;50.00;;;;;;6219927;27;19937;-46
2022/01/04 10:55:24;;;;;;;;;;;22.60;49.90;;;;;;6241179;27;21286;-44
2022/01/04 10:58:28;;;;;;;;;;;22.80;49.90;;;;;;6233080;27;20046;-48
2022/01/04 11:01:30;;;;;;;;;;;22.80;50.60;;;;;;6226262;27;19991;-48
2022/01/04 11:04:32;;;;;;;;;;;22.40;49.60;;;;;;6257338;27;21620;-47
2022/01/04 11:07:34;;;;;;;;;;;22.60;49.70;;;;;;6254175;27;19980;-45
2022/01/04 11:10:36;;;;;;;;;;;22.90;49.90;;;;;;6250106;27;19934;-43
2022/01/04 11:13:39;;;;;;;;;;;22.60;49.70;;;;;;6234375;27;19934;-44
2022/01/04 11:16:41;;;;;;;;;;;22.90;49.80;;;;;;6236067;27;20016;-43
2022/01/04 11:19:42;;;;;;;;;;;22.60;49.60;;;;;;6239441;27;19935;-44
2022/01/04 11:22:45;;;;;;;;;;;23.00;50.00;;;;;;6225156;27;19993;-43
2022/01/04 11:25:47;;;;;;;;;;;22.80;49.70;;;;;;6235743;27;20821;-46
2022/01/04 11:28:50;;;;;;;;;;;22.90;49.80;;;;;;6250007;27;19931;-45
2022/01/04 11:31:56;;;;;;;;;;;22.80;49.80;;;;;;6233413;27;19927;-44
2022/01/04 11:35:03;;;;;;;;;;;23.00;49.80;;;;;;6248593;27;19977;-42
2022/01/04 11:38:05;;;;;;;;;;;22.90;49.60;;;;;;6264053;27;19927;-44
2022/01/04 11:41:06;;;;;;;;;;;22.50;49.50;;;;;;6262404;27;20885;-46
2022/01/04 11:44:17;;;;;;;;;;;23.10;49.80;;;;;;6232227;27;19970;-49
2022/01/04 11:47:25;;;;;;;;;;;22.90;49.70;;;;;;6255873;27;20038;-46
2022/01/04 11:50:34;;;;;;;;;;;23.20;49.50;;;;;;6278846;27;19966;-44
2022/01/04 11:53:36;;;;;;;;;;;23.00;49.80;;;;;;6254489;27;19928;-45
2022/01/04 11:56:49;;;;;;;;;;;22.80;49.70;;;;;;6253211;27;19951;-44
2022/01/04 11:59:58;;;;;;;;;;;23.10;49.80;;;;;;6262554;27;19987;-44
2022/01/04 12:03:01;;;;;;;;;;;22.50;49.50;;;;;;6246419;27;21715;-47
2022/01/04 12:06:03;;;;;;;;;;;23.30;49.90;;;;;;6230261;27;19986;-44
2022/01/04 12:09:23;;;;;;;;;;;22.60;49.50;;;;;;6265235;27;19947;-42
2022/01/04 12:12:35;;;;;;;;;;;23.00;49.70;;;;;;6255670;27;19977;-47
2022/01/04 12:15:51;;;;;;;;;;;23.10;49.70;;;;;;6267796;27;20045;-44
2022/01/04 12:18:57;;;;;;;;;;;22.90;49.70;;;;;;6255318;27;19928;-42
2022/01/04 12:22:02;;;;;;;;;;;22.60;49.50;;;;;;6271947;27;19933;-43
2022/01/04 12:25:08;;;;;;;;;;;22.90;49.60;;;;;;6257345;27;19929;-45
2022/01/04 12:28:17;;;;;;;;;;;22.70;49.50;;;;;;6261896;27;19923;-45
2022/01/04 12:31:24;;;;;;;;;;;23.00;49.60;;;;;;6284009;27;19927;-41
2022/01/04 12:34:28;;;;;;;;;;;23.00;49.60;;;;;;6273818;27;19934;-42
2022/01/04 12:37:35;;;;;;;;;;;23.20;49.70;;;;;;6268067;27;19935;-42
2022/01/04 12:40:36;;;;;;;;;;;22.80;49.50;;;;;;6245635;27;19927;-44
2022/01/04 12:43:38;;;;;;;;;;;23.10;49.60;;;;;;6244871;27;20811;-42
2022/01/04 12:46:41;;;;;;;;;;;22.60;49.30;;;;;;6249407;27;19934;-42
2022/01/04 12:49:43;;;;;;;;;;;23.00;49.50;;;;;;6245089;27;19935;-44
2022/01/04 12:52:48;;;;;;;;;;;22.80;49.30;;;;;;6236934;27;19933;-45
2022/01/04 12:55:59;;;;;;;;;;;23.10;49.50;;;;;;6212632;27;19992;-43
2022/01/04 12:59:00;;;;;;;;;;;22.90;49.40;;;;;;6220756;27;19928;-41
2022/01/04 13:02:03;;;;;;;;;;;23.00;49.50;;;;;;6195728;27;19996;-42
2022/01/04 13:05:07;;;;;;;;;;;22.70;49.20;;;;;;6220468;27;19927;-43
2022/01/04 13:08:23;;;;;;;;;;;23.10;50.00;;;;;;6218863;27;19927;-42
2022/01/04 13:11:25;;;;;;;;;;;22.70;49.10;;;;;;6218941;27;20022;-46
2022/01/04 13:14:27;;;;;;;;;;;23.20;49.40;;;;;;6229339;27;19933;-41
2022/01/04 13:17:29;;;;;;;;;;;23.20;49.40;;;;;;6215062;27;21548;-44
2022/01/04 13:20:33;;;;;;;;;;;23.30;49.40;;;;;;6227375;27;20251;-42
2022/01/04 13:23:36;;;;;;;;;;;23.40;49.40;;;;;;6192576;27;19927;-46
2022/01/04 13:26:37;;;;;;;;;;;23.10;49.30;;;;;;6204302;27;19927;-43
2022/01/04 13:29:39;;;;;;;;;;;23.10;49.20;;;;;;6232399;27;20018;-42
2022/01/04 13:32:41;;;;;;;;;;;23.10;49.30;;;;;;6228906;27;19927;-48
2022/01/04 13:35:45;;;;;;;;;;;23.10;49.10;;;;;;6232677;27;19927;-47
2022/01/04 13:38:48;;;;;;;;;;;23.10;49.10;;;;;;6222493;27;19975;-41
2022/01/04 13:41:50;;;;;;;;;;;22.90;49.00;;;;;;6214412;27;19935;-42
2022/01/04 13:44:53;;;;;;;;;;;23.20;49.10;;;;;;6242655;27;20817;-41
2022/01/04 13:47:57;;;;;;;;;;;23.10;49.00;;;;;;6237472;27;19927;-43
2022/01/04 13:51:03;;;;;;;;;;;23.20;49.00;;;;;;6210092;27;20000;-42
2022/01/04 13:54:08;;;;;;;;;;;23.10;49.00;;;;;;6241403;27;20060;-45
2022/01/04 13:57:11;;;;;;;;;;;22.90;48.70;;;;;;6221573;28;19953;-42
2022/01/04 14:00:23;;;;;;;;;;;23.20;48.90;;;;;;6210067;27;19928;-43
2022/01/04 14:03:26;;;;;;;;;;;23.00;48.70;;;;;;6231379;27;19927;-43
2022/01/04 14:06:31;;;;;;;;;;;23.00;48.70;;;;;;6229486;27;21651;-42
2022/01/04 14:09:35;;;;;;;;;;;23.40;48.90;;;;;;6234642;27;19928;-42
2022/01/04 14:12:41;;;;;;;;;;;23.00;48.70;;;;;;6213529;27;19966;-42
2022/01/04 14:16:03;;;;;;;;;;;22.90;48.60;;;;;;6235975;27;19988;-44
2022/01/04 14:19:06;;;;;;;;;;;23.60;49.20;;;;;;6240054;27;19928;-42
2022/01/04 14:22:08;;;;;;;;;;;22.90;49.40;;;;;;6244576;27;19931;-43
2022/01/04 14:25:11;;;;;;;;;;;22.90;49.20;;;;;;6256520;27;19927;-42
2022/01/04 14:28:23;;;;;;;;;;;23.00;49.20;;;;;;6237141;27;19939;-45
2022/01/04 14:31:25;;;;;;;;;;;22.70;49.00;;;;;;6230079;27;20167;-41
2022/01/04 14:34:26;;;;;;;;;;;22.80;48.90;;;;;;6245182;27;21028;-45
2022/01/04 14:37:29;;;;;;;;;;;23.10;49.00;;;;;;6249226;27;19927;-45
2022/01/04 14:40:31;;;;;;;;;;;23.10;48.90;;;;;;6239120;27;19935;-47
2022/01/04 14:43:32;;;;;;;;;;;22.70;48.60;;;;;;6245304;27;20114;-41
2022/01/04 14:46:33;;;;;;;;;;;23.10;48.90;;;;;;6225291;27;19927;-42
2022/01/04 14:49:35;;;;;;;;;;;23.30;49.00;;;;;;6238663;27;19931;-41
2022/01/04 14:52:38;;;;;;;;;;;23.00;48.70;;;;;;6212757;27;19935;-43
2022/01/04 14:55:39;;;;;;;;;;;23.10;49.30;;;;;;6236976;27;19928;-45
2022/01/04 14:59:03;;;;;;;;;;;23.00;48.60;;;;;;6222656;27;19937;-44
2022/01/04 15:02:08;;;;;;;;;;;22.70;48.40;;;;;;6240704;27;22280;-43
2022/01/04 15:05:09;;;;;;;;;;;23.00;48.50;;;;;;6245187;27;20670;-43
2022/01/04 15:08:11;;;;;;;;;;;22.70;48.40;;;;;;6225421;27;20047;-42
2022/01/04 15:11:12;;;;;;;;;;;23.30;48.60;;;;;;6236994;27;19927;-43
2022/01/04 15:14:13;;;;;;;;;;;23.00;48.40;;;;;;6233149;27;19985;-42
2022/01/04 15:17:15;;;;;;;;;;;23.20;48.50;;;;;;6227595;27;20048;-43
2022/01/04 15:20:17;;;;;;;;;;;22.90;48.40;;;;;;6218976;27;19997;-43
2022/01/04 15:23:19;;;;;;;;;;;23.10;48.40;;;;;;6239990;27;19927;-42
2022/01/04 15:26:20;;;;;;;;;;;23.10;48.40;;;;;;6232420;27;19927;-42
2022/01/04 15:29:22;;;;;;;;;;;23.30;48.50;;;;;;6251386;27;20015;-43
2022/01/04 15:32:23;;;;;;;;;;;23.20;48.40;;;;;;6221063;27;19927;-42
2022/01/04 15:35:25;;;;;;;;;;;23.20;48.40;;;;;;6238805;27;20922;-43
2022/01/04 15:38:27;;;;;;;;;;;22.60;48.10;;;;;;6234766;27;20054;-44
2022/01/04 15:41:28;;;;;;;;;;;23.00;48.30;;;;;;6222212;27;20230;-42
2022/01/04 15:44:31;;;;;;;;;;;22.80;48.20;;;;;;6209670;27;19949;-46
2022/01/04 15:47:33;;;;;;;;;;;22.90;48.30;;;;;;6212549;27;19928;-45
2022/01/04 15:50:34;;;;;;;;;;;22.70;48.20;;;;;;6194537;27;19927;-42
2022/01/04 15:53:37;;;;;;;;;;;23.30;48.60;;;;;;6216583;27;19927;-41
2022/01/04 15:56:38;;;;;;;;;;;22.80;48.20;;;;;;6220895;27;21911;-43
2022/01/04 15:59:39;;;;;;;;;;;23.00;48.30;;;;;;6229518;27;19992;-41
2022/01/04 16:02:41;;;;;;;;;;;23.00;48.20;;;;;;6191862;27;19932;-45
2022/01/04 16:05:44;;;;;;;;;;;23.20;48.30;;;;;;6215833;27;19927;-41
2022/01/04 16:08:46;;;;;;;;;;;22.70;48.00;;;;;;6227771;27;19927;-45
2022/01/04 16:11:48;;;;;;;;;;;23.20;48.30;;;;;;6222660;27;20012;-42
2022/01/04 16:14:50;;;;;;;;;;;22.80;48.10;;;;;;6228497;27;19928;-43
2022/01/04 16:17:57;;;;;;;;;;;23.10;48.20;;;;;;6219276;27;19935;-44
2022/01/04 16:24:24;;;;;;;;;;;22.90;48.00;;;;;;6226261;27;20013;-43
2022/01/04 16:27:26;;;;;;;;;;;23.00;48.20;;;;;;6242961;27;19931;-42
2022/01/04 16:30:27;;;;;;;;;;;23.10;48.10;;;;;;6240653;27;20924;-42
2022/01/04 16:33:29;;;;;;;;;;;22.90;48.00;;;;;;6225209;27;19935;-44
2022/01/04 16:36:32;;;;;;;;;;;23.10;48.10;;;;;;6229609;27;19927;-44
2022/01/04 16:39:34;;;;;;;;;;;22.80;47.40;;;;;;6196940;27;19956;-41
2022/01/04 16:42:36;;;;;;;;;;;23.10;48.10;;;;;;6218175;27;19934;-41
2022/01/04 16:45:37;;;;;;;;;;;23.00;48.00;;;;;;6230877;27;19931;-45
2022/01/04 16:48:39;;;;;;;;;;;23.10;48.20;;;;;;6239489;27;20045;-42
2022/01/04 16:51:40;;;;;;;;;;;22.70;47.90;;;;;;6236052;27;19934;-44
2022/01/04 16:54:42;;;;;;;;;;;23.10;48.10;;;;;;6246926;27;20045;-41
2022/01/04 16:57:45;;;;;;;;;;;22.50;47.70;;;;;;6233482;27;19984;-42
2022/01/04 17:00:47;;;;;;;;;;;22.70;47.80;;;;;;6242357;27;21171;-44
2022/01/04 17:03:49;;;;;;;;;;;22.50;47.70;;;;;;6253960;27;20029;-42
2022/01/04 17:06:51;;;;;;;;;;;22.90;47.90;;;;;;6260520;27;19932;-42
2022/01/04 17:09:56;;;;;;;;;;;23.00;48.00;;;;;;6251494;27;20043;-42
2022/01/04 17:16:15;;;;;;;;;;;22.80;47.90;;;;;;6254678;27;19928;-45
2022/01/04 17:19:16;;;;;;;;;;;23.10;48.00;;;;;;6259432;27;19928;-42
2022/01/04 17:22:18;;;;;;;;;;;22.70;47.80;;;;;;6269539;27;19934;-42
2022/01/04 17:25:37;;;;;;;;;;;23.30;48.10;;;;;;6271019;27;19931;-41
2022/01/04 17:28:38;;;;;;;;;;;22.70;47.70;;;;;;6251468;27;19927;-42
2022/01/04 17:31:40;;;;;;;;;;;22.90;47.80;;;;;;6275230;27;20057;-42
2022/01/04 17:34:41;;;;;;;;;;;22.80;47.80;;;;;;6283060;27;19947;-43
2022/01/04 17:37:43;;;;;;;;;;;22.80;47.80;;;;;;6286286;27;20054;-45
2022/01/04 17:41:01;;;;;;;;;;;22.80;47.80;;;;;;6280472;27;21346;-41
2022/01/04 17:44:05;;;;;;;;;;;22.90;47.80;;;;;;6262826;28;20058;-42
2022/01/04 17:47:06;;;;;;;;;;;22.70;47.70;;;;;;6285181;27;19933;-42
2022/01/04 17:50:08;;;;;;;;;;;22.80;47.70;;;;;;6283484;27;19927;-43
2022/01/04 17:53:10;;;;;;;;;;;23.00;47.80;;;;;;6261282;27;19934;-43